sensor_id;sensor_type;location;lat;lon;timestamp;temperature;humidity
19813;DHT22;10066;48.108;11.448;2023-06-10T00:02:14;15.70;99.90
19813;DHT22;10066;48.108;11.448;2023-06-10T00:04:42;15.70;99.90
19813;DHT22;10066;48.108;11.448;2023-06-10T00:07:09;15.70;99.90
19813;DHT22;10066;48.108;11.448;2023-06-10T00:09:36;15.70;99.90
19813;DHT22;10066;48.108;11.448;2023-06-10T00:12:04;15.60;99.90
19813;DHT22;10066;48.108;11.448;2023-06-10T00:14:32;15.60;99.90
19813;DHT22;10066;48.108;11.448;2023-06-10T00:17:01;15.60;99.90
19813;DHT22;10066;48.108;11.448;2023-06-10T00:19:28;15.50;99.90
19813;DHT22;10066;48.108;11.448;2023-06-10T00:21:56;15.50;99.90
19813;DHT22;10066;48.108;11.448;2023-06-10T00:24:23;15.50;99.90
19813;DHT22;10066;48.108;11.448;2023-06-10T00:26:50;15.50;99.90
19813;DHT22;10066;48.108;11.448;2023-06-10T00:29:17;15.40;99.90
19813;DHT22;10066;48.108;11.448;2023-06-10T00:31:45;15.40;99.90
19813;DHT22;10066;48.108;11.448;2023-06-10T00:34:14;15.40;99.90
19813;DHT22;10066;48.108;11.448;2023-06-10T00:36:41;15.40;99.90
19813;DHT22;10066;48.108;11.448;2023-06-10T00:39:08;15.30;99.90
19813;DHT22;10066;48.108;11.448;2023-06-10T00:41:36;15.30;99.90
19813;DHT22;10066;48.108;11.448;2023-06-10T00:44:03;15.30;99.90
19813;DHT22;10066;48.108;11.448;2023-06-10T00:46:30;15.20;99.90
19813;DHT22;10066;48.108;11.448;2023-06-10T00:48:59;15.20;99.90
19813;DHT22;10066;48.108;11.448;2023-06-10T00:51:28;15.20;99.90
19813;DHT22;10066;48.108;11.448;2023-06-10T00:53:55;15.10;99.90
19813;DHT22;10066;48.108;11.448;2023-06-10T00:56:22;15.10;99.90
19813;DHT22;10066;48.108;11.448;2023-06-10T00:58:50;15.00;99.90
19813;DHT22;10066;48.108;11.448;2023-06-10T01:01:17;15.00;99.90
19813;DHT22;10066;48.108;11.448;2023-06-10T01:03:45;14.90;99.90
19813;DHT22;10066;48.108;11.448;2023-06-10T01:06:20;14.90;99.90
19813;DHT22;10066;48.108;11.448;2023-06-10T01:08:59;14.90;99.90
19813;DHT22;10066;48.108;11.448;2023-06-10T01:13:58;14.80;99.90
19813;DHT22;10066;48.108;11.448;2023-06-10T01:16:26;14.80;99.90
19813;DHT22;10066;48.108;11.448;2023-06-10T01:18:54;14.80;99.90
19813;DHT22;10066;48.108;11.448;2023-06-10T01:21:22;14.70;99.90
19813;DHT22;10066;48.108;11.448;2023-06-10T01:23:51;14.70;99.90
19813;DHT22;10066;48.108;11.448;2023-06-10T01:26:22;14.70;99.90
19813;DHT22;10066;48.108;11.448;2023-06-10T01:28:52;14.60;99.90
19813;DHT22;10066;48.108;11.448;2023-06-10T01:31:31;14.60;99.90
19813;DHT22;10066;48.108;11.448;2023-06-10T01:34:03;14.50;99.90
19813;DHT22;10066;48.108;11.448;2023-06-10T01:36:35;14.50;99.90
19813;DHT22;10066;48.108;11.448;2023-06-10T01:39:04;14.40;99.90
19813;DHT22;10066;48.108;11.448;2023-06-10T01:41:31;14.40;99.90
19813;DHT22;10066;48.108;11.448;2023-06-10T01:43:59;14.40;99.90
19813;DHT22;10066;48.108;11.448;2023-06-10T01:46:26;14.40;99.90
19813;DHT22;10066;48.108;11.448;2023-06-10T01:48:53;14.30;99.90
19813;DHT22;10066;48.108;11.448;2023-06-10T01:51:20;14.30;99.90
19813;DHT22;10066;48.108;11.448;2023-06-10T01:53:49;14.30;99.90
19813;DHT22;10066;48.108;11.448;2023-06-10T01:56:16;14.30;99.90
19813;DHT22;10066;48.108;11.448;2023-06-10T01:58:46;14.30;99.90
19813;DHT22;10066;48.108;11.448;2023-06-10T02:01:13;14.20;99.90
19813;DHT22;10066;48.108;11.448;2023-06-10T02:03:40;14.20;99.90
19813;DHT22;10066;48.108;11.448;2023-06-10T02:06:07;14.10;99.90
19813;DHT22;10066;48.108;11.448;2023-06-10T02:08:34;14.10;99.90
19813;DHT22;10066;48.108;11.448;2023-06-10T02:11:02;14.10;99.90
19813;DHT22;10066;48.108;11.448;2023-06-10T02:13:29;14.00;99.90
19813;DHT22;10066;48.108;11.448;2023-06-10T02:15:56;14.00;99.90
19813;DHT22;10066;48.108;11.448;2023-06-10T02:18:24;14.00;99.90
19813;DHT22;10066;48.108;11.448;2023-06-10T02:20:52;13.90;99.90
19813;DHT22;10066;48.108;11.448;2023-06-10T02:23:19;13.90;99.90
19813;DHT22;10066;48.108;11.448;2023-06-10T02:25:48;13.90;99.90
19813;DHT22;10066;48.108;11.448;2023-06-10T02:28:17;13.90;99.90
19813;DHT22;10066;48.108;11.448;2023-06-10T02:30:44;13.80;99.90
19813;DHT22;10066;48.108;11.448;2023-06-10T02:33:12;13.80;99.90
19813;DHT22;10066;48.108;11.448;2023-06-10T02:35:39;13.80;99.90
19813;DHT22;10066;48.108;11.448;2023-06-10T02:38:07;13.80;99.90
19813;DHT22;10066;48.108;11.448;2023-06-10T02:40:34;13.70;99.90
19813;DHT22;10066;48.108;11.448;2023-06-10T02:43:01;13.70;99.90
19813;DHT22;10066;48.108;11.448;2023-06-10T02:45:29;13.70;99.90
19813;DHT22;10066;48.108;11.448;2023-06-10T02:47:57;13.60;99.90
19813;DHT22;10066;48.108;11.448;2023-06-10T02:50:24;13.60;99.90
19813;DHT22;10066;48.108;11.448;2023-06-10T02:52:51;13.60;99.90
19813;DHT22;10066;48.108;11.448;2023-06-10T02:55:18;13.60;99.90
19813;DHT22;10066;48.108;11.448;2023-06-10T02:57:45;13.60;99.90
19813;DHT22;10066;48.108;11.448;2023-06-10T03:00:12;13.60;99.90
19813;DHT22;10066;48.108;11.448;2023-06-10T03:02:41;13.50;99.90
19813;DHT22;10066;48.108;11.448;2023-06-10T03:05:11;13.50;99.90
19813;DHT22;10066;48.108;11.448;2023-06-10T03:07:38;13.50;99.90
19813;DHT22;10066;48.108;11.448;2023-06-10T03:10:07;13.40;99.90
19813;DHT22;10066;48.108;11.448;2023-06-10T03:12:34;13.40;99.90
19813;DHT22;10066;48.108;11.448;2023-06-10T03:15:01;13.50;99.90
19813;DHT22;10066;48.108;11.448;2023-06-10T03:17:32;13.40;99.90
19813;DHT22;10066;48.108;11.448;2023-06-10T03:20:01;13.40;99.90
19813;DHT22;10066;48.108;11.448;2023-06-10T03:22:28;13.40;99.90
19813;DHT22;10066;48.108;11.448;2023-06-10T03:24:56;13.40;99.90
19813;DHT22;10066;48.108;11.448;2023-06-10T03:27:23;13.40;99.90
19813;DHT22;10066;48.108;11.448;2023-06-10T03:29:50;13.40;99.90
19813;DHT22;10066;48.108;11.448;2023-06-10T03:32:17;13.40;99.90
19813;DHT22;10066;48.108;11.448;2023-06-10T03:34:44;13.40;99.90
19813;DHT22;10066;48.108;11.448;2023-06-10T03:37:16;13.50;99.90
19813;DHT22;10066;48.108;11.448;2023-06-10T03:39:43;13.50;99.90
19813;DHT22;10066;48.108;11.448;2023-06-10T03:42:10;13.50;99.90
19813;DHT22;10066;48.108;11.448;2023-06-10T03:44:37;13.50;99.90
19813;DHT22;10066;48.108;11.448;2023-06-10T03:47:06;13.50;99.90
19813;DHT22;10066;48.108;11.448;2023-06-10T03:49:33;13.50;99.90
19813;DHT22;10066;48.108;11.448;2023-06-10T03:52:00;13.50;99.90
19813;DHT22;10066;48.108;11.448;2023-06-10T03:54:28;13.60;99.90
19813;DHT22;10066;48.108;11.448;2023-06-10T03:56:57;13.60;99.90
19813;DHT22;10066;48.108;11.448;2023-06-10T03:59:24;13.60;99.90
19813;DHT22;10066;48.108;11.448;2023-06-10T04:01:50;13.70;99.90
19813;DHT22;10066;48.108;11.448;2023-06-10T04:04:18;13.70;99.90
19813;DHT22;10066;48.108;11.448;2023-06-10T04:06:44;13.80;99.90
19813;DHT22;10066;48.108;11.448;2023-06-10T04:09:12;13.80;99.90
19813;DHT22;10066;48.108;11.448;2023-06-10T04:11:41;14.00;99.90
19813;DHT22;10066;48.108;11.448;2023-06-10T04:14:08;14.80;99.90
19813;DHT22;10066;48.108;11.448;2023-06-10T04:16:35;15.60;99.90
19813;DHT22;10066;48.108;11.448;2023-06-10T04:19:03;16.10;99.90
19813;DHT22;10066;48.108;11.448;2023-06-10T04:21:31;16.70;99.90
19813;DHT22;10066;48.108;11.448;2023-06-10T04:23:58;17.20;99.90
19813;DHT22;10066;48.108;11.448;2023-06-10T04:26:25;17.70;99.90
19813;DHT22;10066;48.108;11.448;2023-06-10T04:28:54;18.20;99.90
19813;DHT22;10066;48.108;11.448;2023-06-10T04:31:21;18.70;99.90
19813;DHT22;10066;48.108;11.448;2023-06-10T04:33:49;19.00;99.90
19813;DHT22;10066;48.108;11.448;2023-06-10T04:36:16;19.20;99.90
19813;DHT22;10066;48.108;11.448;2023-06-10T04:38:46;19.30;99.90
19813;DHT22;10066;48.108;11.448;2023-06-10T04:41:13;19.30;99.90
19813;DHT22;10066;48.108;11.448;2023-06-10T04:43:40;19.50;99.90
19813;DHT22;10066;48.108;11.448;2023-06-10T04:46:09;19.50;99.90
19813;DHT22;10066;48.108;11.448;2023-06-10T04:48:36;20.00;99.90
19813;DHT22;10066;48.108;11.448;2023-06-10T04:51:03;20.40;99.90
19813;DHT22;10066;48.108;11.448;2023-06-10T04:53:30;20.90;99.90
19813;DHT22;10066;48.108;11.448;2023-06-10T04:55:57;21.30;99.90
19813;DHT22;10066;48.108;11.448;2023-06-10T04:58:25;21.80;99.90
19813;DHT22;10066;48.108;11.448;2023-06-10T05:00:52;22.30;99.90
19813;DHT22;10066;48.108;11.448;2023-06-10T05:03:20;22.90;99.90
19813;DHT22;10066;48.108;11.448;2023-06-10T05:05:47;23.20;99.90
19813;DHT22;10066;48.108;11.448;2023-06-10T05:08:14;22.90;99.90
19813;DHT22;10066;48.108;11.448;2023-06-10T05:10:41;22.10;99.90
19813;DHT22;10066;48.108;11.448;2023-06-10T05:13:08;21.40;99.90
19813;DHT22;10066;48.108;11.448;2023-06-10T05:15:35;20.80;99.90
19813;DHT22;10066;48.108;11.448;2023-06-10T05:18:02;20.30;99.90
19813;DHT22;10066;48.108;11.448;2023-06-10T05:20:31;20.00;99.90
19813;DHT22;10066;48.108;11.448;2023-06-10T05:22:57;19.80;99.90
19813;DHT22;10066;48.108;11.448;2023-06-10T05:25:26;19.40;99.90
19813;DHT22;10066;48.108;11.448;2023-06-10T05:27:53;19.40;99.90
19813;DHT22;10066;48.108;11.448;2023-06-10T05:30:20;19.20;99.90
19813;DHT22;10066;48.108;11.448;2023-06-10T05:32:47;19.00;99.90
19813;DHT22;10066;48.108;11.448;2023-06-10T05:35:14;18.90;99.90
19813;DHT22;10066;48.108;11.448;2023-06-10T05:37:43;18.90;99.90
19813;DHT22;10066;48.108;11.448;2023-06-10T05:40:11;18.80;99.90
19813;DHT22;10066;48.108;11.448;2023-06-10T05:42:38;18.80;99.90
19813;DHT22;10066;48.108;11.448;2023-06-10T05:45:06;18.90;99.90
19813;DHT22;10066;48.108;11.448;2023-06-10T05:47:33;18.90;99.90
19813;DHT22;10066;48.108;11.448;2023-06-10T05:50:00;18.90;99.90
19813;DHT22;10066;48.108;11.448;2023-06-10T05:52:27;19.00;99.90
19813;DHT22;10066;48.108;11.448;2023-06-10T05:54:56;18.90;99.90
19813;DHT22;10066;48.108;11.448;2023-06-10T05:57:23;19.00;99.90
19813;DHT22;10066;48.108;11.448;2023-06-10T05:59:50;18.90;99.90
19813;DHT22;10066;48.108;11.448;2023-06-10T06:02:16;19.00;99.90
19813;DHT22;10066;48.108;11.448;2023-06-10T06:04:43;18.90;99.90
19813;DHT22;10066;48.108;11.448;2023-06-10T06:07:10;18.90;99.90
19813;DHT22;10066;48.108;11.448;2023-06-10T06:09:38;18.90;99.90
19813;DHT22;10066;48.108;11.448;2023-06-10T06:12:07;18.90;99.90
19813;DHT22;10066;48.108;11.448;2023-06-10T06:14:37;18.90;99.90
19813;DHT22;10066;48.108;11.448;2023-06-10T06:17:05;19.00;99.90
19813;DHT22;10066;48.108;11.448;2023-06-10T06:19:32;19.00;99.90
19813;DHT22;10066;48.108;11.448;2023-06-10T06:21:59;19.00;99.90
19813;DHT22;10066;48.108;11.448;2023-06-10T06:24:26;19.40;99.90
19813;DHT22;10066;48.108;11.448;2023-06-10T06:26:53;20.50;99.90
19813;DHT22;10066;48.108;11.448;2023-06-10T06:29:21;21.80;99.90
19813;DHT22;10066;48.108;11.448;2023-06-10T06:31:48;23.10;99.90
19813;DHT22;10066;48.108;11.448;2023-06-10T06:34:15;23.90;99.90
19813;DHT22;10066;48.108;11.448;2023-06-10T06:36:43;23.20;99.90
19813;DHT22;10066;48.108;11.448;2023-06-10T06:39:10;22.40;99.90
19813;DHT22;10066;48.108;11.448;2023-06-10T06:41:37;21.90;99.90
19813;DHT22;10066;48.108;11.448;2023-06-10T06:44:04;21.00;99.90
19813;DHT22;10066;48.108;11.448;2023-06-10T06:46:32;20.50;99.90
19813;DHT22;10066;48.108;11.448;2023-06-10T06:48:59;20.30;99.90
19813;DHT22;10066;48.108;11.448;2023-06-10T06:51:26;20.30;99.90
19813;DHT22;10066;48.108;11.448;2023-06-10T06:53:53;20.50;99.90
19813;DHT22;10066;48.108;11.448;2023-06-10T06:56:23;20.70;99.90
19813;DHT22;10066;48.108;11.448;2023-06-10T06:58:51;21.30;99.90
19813;DHT22;10066;48.108;11.448;2023-06-10T07:01:18;21.90;99.90
19813;DHT22;10066;48.108;11.448;2023-06-10T07:03:47;22.60;99.90
19813;DHT22;10066;48.108;11.448;2023-06-10T07:06:14;23.30;99.90
19813;DHT22;10066;48.108;11.448;2023-06-10T07:08:41;23.80;99.90
19813;DHT22;10066;48.108;11.448;2023-06-10T07:11:08;23.90;99.90
19813;DHT22;10066;48.108;11.448;2023-06-10T07:13:35;23.50;99.90
19813;DHT22;10066;48.108;11.448;2023-06-10T07:16:03;22.90;99.90
19813;DHT22;10066;48.108;11.448;2023-06-10T07:18:30;22.40;99.90
19813;DHT22;10066;48.108;11.448;2023-06-10T07:20:58;22.00;99.90
19813;DHT22;10066;48.108;11.448;2023-06-10T07:23:25;21.60;99.90
19813;DHT22;10066;48.108;11.448;2023-06-10T07:25:53;21.40;99.90
19813;DHT22;10066;48.108;11.448;2023-06-10T07:28:20;21.40;99.90
19813;DHT22;10066;48.108;11.448;2023-06-10T07:30:46;21.40;99.90
19813;DHT22;10066;48.108;11.448;2023-06-10T07:33:13;21.40;99.90
19813;DHT22;10066;48.108;11.448;2023-06-10T07:35:40;21.40;99.90
19813;DHT22;10066;48.108;11.448;2023-06-10T07:38:11;21.40;99.90
19813;DHT22;10066;48.108;11.448;2023-06-10T07:40:38;21.40;99.90
19813;DHT22;10066;48.108;11.448;2023-06-10T07:43:08;21.50;99.90
19813;DHT22;10066;48.108;11.448;2023-06-10T07:45:35;21.50;99.90
19813;DHT22;10066;48.108;11.448;2023-06-10T07:48:02;21.40;99.90
19813;DHT22;10066;48.108;11.448;2023-06-10T07:50:29;21.30;99.90
19813;DHT22;10066;48.108;11.448;2023-06-10T07:52:56;21.30;99.90
19813;DHT22;10066;48.108;11.448;2023-06-10T07:55:29;21.20;99.90
19813;DHT22;10066;48.108;11.448;2023-06-10T07:57:56;21.20;99.90
19813;DHT22;10066;48.108;11.448;2023-06-10T08:00:23;21.20;99.90
19813;DHT22;10066;48.108;11.448;2023-06-10T08:02:50;21.20;99.90
19813;DHT22;10066;48.108;11.448;2023-06-10T08:05:17;21.20;99.90
19813;DHT22;10066;48.108;11.448;2023-06-10T08:07:45;21.10;99.90
19813;DHT22;10066;48.108;11.448;2023-06-10T08:10:12;21.10;99.90
19813;DHT22;10066;48.108;11.448;2023-06-10T08:12:41;21.30;99.90
19813;DHT22;10066;48.108;11.448;2023-06-10T08:15:08;21.40;99.90
19813;DHT22;10066;48.108;11.448;2023-06-10T08:17:36;21.50;99.90
19813;DHT22;10066;48.108;11.448;2023-06-10T08:20:08;21.60;99.90
19813;DHT22;10066;48.108;11.448;2023-06-10T08:22:35;21.70;99.90
19813;DHT22;10066;48.108;11.448;2023-06-10T08:25:03;21.70;99.90
19813;DHT22;10066;48.108;11.448;2023-06-10T08:27:30;21.80;99.90
19813;DHT22;10066;48.108;11.448;2023-06-10T08:29:58;21.80;99.90
19813;DHT22;10066;48.108;11.448;2023-06-10T08:32:26;21.90;99.90
19813;DHT22;10066;48.108;11.448;2023-06-10T08:34:53;22.00;99.90
19813;DHT22;10066;48.108;11.448;2023-06-10T08:37:20;22.00;99.90
19813;DHT22;10066;48.108;11.448;2023-06-10T08:39:48;22.20;99.90
19813;DHT22;10066;48.108;11.448;2023-06-10T08:42:22;22.40;99.90
19813;DHT22;10066;48.108;11.448;2023-06-10T08:44:53;22.40;99.90
19813;DHT22;10066;48.108;11.448;2023-06-10T08:47:23;22.50;99.90
19813;DHT22;10066;48.108;11.448;2023-06-10T08:49:51;22.40;99.90
19813;DHT22;10066;48.108;11.448;2023-06-10T08:52:20;22.20;99.90
19813;DHT22;10066;48.108;11.448;2023-06-10T08:54:50;22.20;99.90
19813;DHT22;10066;48.108;11.448;2023-06-10T08:57:18;22.00;99.90
19813;DHT22;10066;48.108;11.448;2023-06-10T08:59:47;22.00;99.90
19813;DHT22;10066;48.108;11.448;2023-06-10T09:02:15;22.00;99.90
19813;DHT22;10066;48.108;11.448;2023-06-10T09:04:47;22.10;99.90
19813;DHT22;10066;48.108;11.448;2023-06-10T09:07:16;22.10;99.90
19813;DHT22;10066;48.108;11.448;2023-06-10T09:12:13;22.30;99.90
19813;DHT22;10066;48.108;11.448;2023-06-10T09:14:40;22.40;99.90
19813;DHT22;10066;48.108;11.448;2023-06-10T09:17:08;22.50;99.90
19813;DHT22;10066;48.108;11.448;2023-06-10T09:19:35;22.40;99.90
19813;DHT22;10066;48.108;11.448;2023-06-10T09:22:05;22.40;99.90
19813;DHT22;10066;48.108;11.448;2023-06-10T09:24:32;22.40;99.90
19813;DHT22;10066;48.108;11.448;2023-06-10T09:27:05;22.40;99.90
19813;DHT22;10066;48.108;11.448;2023-06-10T09:29:35;22.50;99.90
19813;DHT22;10066;48.108;11.448;2023-06-10T09:32:12;22.40;99.90
19813;DHT22;10066;48.108;11.448;2023-06-10T09:34:40;22.30;99.90
19813;DHT22;10066;48.108;11.448;2023-06-10T09:37:09;22.10;99.90
19813;DHT22;10066;48.108;11.448;2023-06-10T09:39:38;22.20;99.90
19813;DHT22;10066;48.108;11.448;2023-06-10T09:42:16;22.30;99.90
19813;DHT22;10066;48.108;11.448;2023-06-10T09:44:49;22.40;99.90
19813;DHT22;10066;48.108;11.448;2023-06-10T09:47:20;22.50;99.90
19813;DHT22;10066;48.108;11.448;2023-06-10T09:49:48;22.40;99.90
19813;DHT22;10066;48.108;11.448;2023-06-10T09:52:23;22.40;99.90
19813;DHT22;10066;48.108;11.448;2023-06-10T09:54:51;22.50;99.90
19813;DHT22;10066;48.108;11.448;2023-06-10T09:57:19;22.70;99.90
19813;DHT22;10066;48.108;11.448;2023-06-10T09:59:48;22.60;99.90
19813;DHT22;10066;48.108;11.448;2023-06-10T10:02:19;22.60;99.90
19813;DHT22;10066;48.108;11.448;2023-06-10T10:04:46;22.60;99.90
19813;DHT22;10066;48.108;11.448;2023-06-10T10:07:13;22.60;99.90
19813;DHT22;10066;48.108;11.448;2023-06-10T10:09:42;22.40;99.90
19813;DHT22;10066;48.108;11.448;2023-06-10T10:12:11;22.40;99.90
19813;DHT22;10066;48.108;11.448;2023-06-10T10:14:39;22.50;99.90
19813;DHT22;10066;48.108;11.448;2023-06-10T10:17:11;22.50;99.90
19813;DHT22;10066;48.108;11.448;2023-06-10T10:19:43;22.70;99.90
19813;DHT22;10066;48.108;11.448;2023-06-10T10:22:18;22.90;99.90
19813;DHT22;10066;48.108;11.448;2023-06-10T10:24:50;22.90;99.90
19813;DHT22;10066;48.108;11.448;2023-06-10T10:27:20;22.90;99.90
19813;DHT22;10066;48.108;11.448;2023-06-10T10:29:52;22.90;99.90
19813;DHT22;10066;48.108;11.448;2023-06-10T10:32:23;22.90;99.90
19813;DHT22;10066;48.108;11.448;2023-06-10T10:34:59;22.90;99.90
19813;DHT22;10066;48.108;11.448;2023-06-10T10:37:33;23.00;99.90
19813;DHT22;10066;48.108;11.448;2023-06-10T10:40:02;23.10;99.90
19813;DHT22;10066;48.108;11.448;2023-06-10T10:42:30;23.20;99.90
19813;DHT22;10066;48.108;11.448;2023-06-10T10:44:58;23.30;99.90
19813;DHT22;10066;48.108;11.448;2023-06-10T10:47:28;23.30;98.90
19813;DHT22;10066;48.108;11.448;2023-06-10T10:49:56;23.30;98.60
19813;DHT22;10066;48.108;11.448;2023-06-10T10:52:25;23.40;99.40
19813;DHT22;10066;48.108;11.448;2023-06-10T10:54:53;23.50;99.30
19813;DHT22;10066;48.108;11.448;2023-06-10T10:57:23;23.60;98.50
19813;DHT22;10066;48.108;11.448;2023-06-10T10:59:56;23.60;99.00
19813;DHT22;10066;48.108;11.448;2023-06-10T11:02:36;23.90;98.30
19813;DHT22;10066;48.108;11.448;2023-06-10T11:05:06;24.00;96.80
19813;DHT22;10066;48.108;11.448;2023-06-10T11:07:34;24.00;97.60
19813;DHT22;10066;48.108;11.448;2023-06-10T11:10:05;23.90;96.80
19813;DHT22;10066;48.108;11.448;2023-06-10T11:12:58;23.80;97.30
19813;DHT22;10066;48.108;11.448;2023-06-10T11:15:26;23.70;96.00
19813;DHT22;10066;48.108;11.448;2023-06-10T11:18:11;23.40;96.50
19813;DHT22;10066;48.108;11.448;2023-06-10T11:20:55;23.30;96.10
19813;DHT22;10066;48.108;11.448;2023-06-10T11:23:38;23.30;96.90
19813;DHT22;10066;48.108;11.448;2023-06-10T11:26:13;23.30;95.90
19813;DHT22;10066;48.108;11.448;2023-06-10T11:29:05;23.40;96.30
19813;DHT22;10066;48.108;11.448;2023-06-10T11:31:36;23.60;95.80
19813;DHT22;10066;48.108;11.448;2023-06-10T11:34:06;23.60;95.60
19813;DHT22;10066;48.108;11.448;2023-06-10T11:36:37;23.80;96.60
19813;DHT22;10066;48.108;11.448;2023-06-10T11:39:06;24.00;95.90
19813;DHT22;10066;48.108;11.448;2023-06-10T11:41:35;24.10;95.90
19813;DHT22;10066;48.108;11.448;2023-06-10T11:44:07;24.20;96.00
19813;DHT22;10066;48.108;11.448;2023-06-10T11:46:35;24.30;95.40
19813;DHT22;10066;48.108;11.448;2023-06-10T11:49:04;24.40;95.20
19813;DHT22;10066;48.108;11.448;2023-06-10T11:51:34;24.30;94.50
19813;DHT22;10066;48.108;11.448;2023-06-10T11:54:02;24.30;94.90
19813;DHT22;10066;48.108;11.448;2023-06-10T11:56:30;24.20;94.70
19813;DHT22;10066;48.108;11.448;2023-06-10T11:58:58;24.30;95.50
19813;DHT22;10066;48.108;11.448;2023-06-10T12:01:31;24.40;94.90
19813;DHT22;10066;48.108;11.448;2023-06-10T12:04:00;24.40;93.30
19813;DHT22;10066;48.108;11.448;2023-06-10T12:06:27;24.30;93.00
19813;DHT22;10066;48.108;11.448;2023-06-10T12:08:54;24.30;92.90
19813;DHT22;10066;48.108;11.448;2023-06-10T12:11:22;24.20;92.50
19813;DHT22;10066;48.108;11.448;2023-06-10T12:13:50;24.30;93.00
19813;DHT22;10066;48.108;11.448;2023-06-10T12:16:17;24.40;93.10
19813;DHT22;10066;48.108;11.448;2023-06-10T12:18:47;24.50;92.70
19813;DHT22;10066;48.108;11.448;2023-06-10T12:21:18;24.60;92.20
19813;DHT22;10066;48.108;11.448;2023-06-10T12:24:03;24.70;92.10
19813;DHT22;10066;48.108;11.448;2023-06-10T12:26:38;24.90;92.30
19813;DHT22;10066;48.108;11.448;2023-06-10T12:29:18;25.00;91.00
19813;DHT22;10066;48.108;11.448;2023-06-10T12:31:57;25.10;90.80
19813;DHT22;10066;48.108;11.448;2023-06-10T12:34:34;25.10;89.30
19813;DHT22;10066;48.108;11.448;2023-06-10T12:37:05;25.20;88.80
19813;DHT22;10066;48.108;11.448;2023-06-10T12:39:33;25.10;90.00
19813;DHT22;10066;48.108;11.448;2023-06-10T12:42:00;25.00;89.30
19813;DHT22;10066;48.108;11.448;2023-06-10T12:44:30;25.00;87.90
19813;DHT22;10066;48.108;11.448;2023-06-10T12:46:58;24.90;88.30
19813;DHT22;10066;48.108;11.448;2023-06-10T12:49:25;25.00;90.10
19813;DHT22;10066;48.108;11.448;2023-06-10T12:51:58;25.10;91.40
19813;DHT22;10066;48.108;11.448;2023-06-10T12:54:25;25.10;92.60
19813;DHT22;10066;48.108;11.448;2023-06-10T12:56:52;24.70;93.00
19813;DHT22;10066;48.108;11.448;2023-06-10T12:59:19;24.40;94.10
19813;DHT22;10066;48.108;11.448;2023-06-10T13:01:50;24.10;95.10
19813;DHT22;10066;48.108;11.448;2023-06-10T13:04:17;23.80;95.80
19813;DHT22;10066;48.108;11.448;2023-06-10T13:06:45;23.70;96.00
19813;DHT22;10066;48.108;11.448;2023-06-10T13:09:16;23.60;95.80
19813;DHT22;10066;48.108;11.448;2023-06-10T13:11:46;23.60;96.00
19813;DHT22;10066;48.108;11.448;2023-06-10T13:14:13;23.70;95.50
19813;DHT22;10066;48.108;11.448;2023-06-10T13:16:40;23.90;95.70
19813;DHT22;10066;48.108;11.448;2023-06-10T13:19:06;24.00;96.00
19813;DHT22;10066;48.108;11.448;2023-06-10T13:21:33;24.20;96.30
19813;DHT22;10066;48.108;11.448;2023-06-10T13:24:01;24.30;96.00
19813;DHT22;10066;48.108;11.448;2023-06-10T13:26:29;24.30;95.80
19813;DHT22;10066;48.108;11.448;2023-06-10T13:28:56;24.30;95.70
19813;DHT22;10066;48.108;11.448;2023-06-10T13:31:24;24.40;95.20
19813;DHT22;10066;48.108;11.448;2023-06-10T13:33:51;24.50;95.50
19813;DHT22;10066;48.108;11.448;2023-06-10T13:36:18;24.50;94.70
19813;DHT22;10066;48.108;11.448;2023-06-10T13:38:45;24.60;94.40
19813;DHT22;10066;48.108;11.448;2023-06-10T13:41:13;24.50;93.20
19813;DHT22;10066;48.108;11.448;2023-06-10T13:43:41;24.30;93.20
19813;DHT22;10066;48.108;11.448;2023-06-10T13:46:08;24.30;93.20
19813;DHT22;10066;48.108;11.448;2023-06-10T13:48:35;24.40;92.60
19813;DHT22;10066;48.108;11.448;2023-06-10T13:51:04;24.50;92.50
19813;DHT22;10066;48.108;11.448;2023-06-10T13:53:32;24.50;92.00
19813;DHT22;10066;48.108;11.448;2023-06-10T13:55:59;24.40;92.10
19813;DHT22;10066;48.108;11.448;2023-06-10T13:58:27;24.20;91.80
19813;DHT22;10066;48.108;11.448;2023-06-10T14:00:56;24.20;91.30
19813;DHT22;10066;48.108;11.448;2023-06-10T14:03:24;24.10;92.60
19813;DHT22;10066;48.108;11.448;2023-06-10T14:05:50;24.10;93.30
19813;DHT22;10066;48.108;11.448;2023-06-10T14:08:18;24.20;93.10
19813;DHT22;10066;48.108;11.448;2023-06-10T14:10:46;24.30;92.70
19813;DHT22;10066;48.108;11.448;2023-06-10T14:13:13;24.30;92.40
19813;DHT22;10066;48.108;11.448;2023-06-10T14:15:42;24.20;92.30
19813;DHT22;10066;48.108;11.448;2023-06-10T14:18:10;24.30;92.60
19813;DHT22;10066;48.108;11.448;2023-06-10T14:20:37;24.20;92.10
19813;DHT22;10066;48.108;11.448;2023-06-10T14:23:04;24.10;93.00
19813;DHT22;10066;48.108;11.448;2023-06-10T14:25:34;24.10;92.50
19813;DHT22;10066;48.108;11.448;2023-06-10T14:28:01;24.10;92.80
19813;DHT22;10066;48.108;11.448;2023-06-10T14:30:28;24.10;92.80
19813;DHT22;10066;48.108;11.448;2023-06-10T14:32:55;24.10;92.60
19813;DHT22;10066;48.108;11.448;2023-06-10T14:35:24;24.20;91.60
19813;DHT22;10066;48.108;11.448;2023-06-10T14:37:52;24.10;90.10
19813;DHT22;10066;48.108;11.448;2023-06-10T14:40:19;24.10;90.10
19813;DHT22;10066;48.108;11.448;2023-06-10T14:42:51;24.10;90.40
19813;DHT22;10066;48.108;11.448;2023-06-10T14:45:18;24.30;90.30
19813;DHT22;10066;48.108;11.448;2023-06-10T14:47:47;24.40;90.00
19813;DHT22;10066;48.108;11.448;2023-06-10T14:50:14;24.50;88.80
19813;DHT22;10066;48.108;11.448;2023-06-10T14:52:43;24.50;88.30
19813;DHT22;10066;48.108;11.448;2023-06-10T14:55:10;24.50;89.10
19813;DHT22;10066;48.108;11.448;2023-06-10T14:57:38;24.60;90.10
19813;DHT22;10066;48.108;11.448;2023-06-10T15:00:08;24.70;90.50
19813;DHT22;10066;48.108;11.448;2023-06-10T15:02:36;24.80;91.00
19813;DHT22;10066;48.108;11.448;2023-06-10T15:05:03;24.90;91.80
19813;DHT22;10066;48.108;11.448;2023-06-10T15:07:30;24.90;92.20
19813;DHT22;10066;48.108;11.448;2023-06-10T15:09:58;24.90;92.20
19813;DHT22;10066;48.108;11.448;2023-06-10T15:12:25;24.90;92.80
19813;DHT22;10066;48.108;11.448;2023-06-10T15:14:53;24.90;92.60
19813;DHT22;10066;48.108;11.448;2023-06-10T15:17:20;24.80;92.70
19813;DHT22;10066;48.108;11.448;2023-06-10T15:19:47;24.70;92.80
19813;DHT22;10066;48.108;11.448;2023-06-10T15:22:14;24.80;93.00
19813;DHT22;10066;48.108;11.448;2023-06-10T15:24:41;24.90;92.60
19813;DHT22;10066;48.108;11.448;2023-06-10T15:27:09;24.90;91.80
19813;DHT22;10066;48.108;11.448;2023-06-10T15:29:37;25.00;91.60